sensor_id;sensor_type;location;lat;lon;timestamp;pressure;altitude;pressure_sealevel;temperature;humidity
61906;BME280;47863;55.766;37.672;2023-03-14T00:01:55;99629.56;;;-3.64;73.93
61906;BME280;47863;55.766;37.672;2023-03-14T00:04:21;99625.19;;;-3.63;73.74
61906;BME280;47863;55.766;37.672;2023-03-14T00:06:46;99617.41;;;-3.65;73.88
61906;BME280;47863;55.766;37.672;2023-03-14T00:09:13;99623.97;;;-3.56;73.97
61906;BME280;47863;55.766;37.672;2023-03-14T00:11:40;99618.50;;;-3.51;73.33
61906;BME280;47863;55.766;37.672;2023-03-14T00:14:06;99615.03;;;-3.52;73.20
61906;BME280;47863;55.766;37.672;2023-03-14T00:16:31;99567.13;;;-3.71;73.34
61906;BME280;47863;55.766;37.672;2023-03-14T00:18:59;99600.09;;;-3.50;73.12
61906;BME280;47863;55.766;37.672;2023-03-14T00:21:24;99599.09;;;-3.47;73.10
61906;BME280;47863;55.766;37.672;2023-03-14T00:23:50;99590.22;;;-3.45;72.83
61906;BME280;47863;55.766;37.672;2023-03-14T00:26:18;99590.31;;;-3.46;72.78
61906;BME280;47863;55.766;37.672;2023-03-14T00:28:44;99575.44;;;-3.46;72.59
61906;BME280;47863;55.766;37.672;2023-03-14T00:31:13;99567.38;;;-3.41;72.45
61906;BME280;47863;55.766;37.672;2023-03-14T00:33:39;99521.41;;;-3.64;72.31
61906;BME280;47863;55.766;37.672;2023-03-14T00:36:07;99559.44;;;-3.40;72.16
61906;BME280;47863;55.766;37.672;2023-03-14T00:38:34;99562.13;;;-3.41;72.88
61906;BME280;47863;55.766;37.672;2023-03-14T00:41:04;99544.78;;;-3.44;72.48
61906;BME280;47863;55.766;37.672;2023-03-14T00:43:29;99552.09;;;-3.33;72.73
61906;BME280;47863;55.766;37.672;2023-03-14T00:45:55;99559.00;;;-3.32;72.29
61906;BME280;47863;55.766;37.672;2023-03-14T00:48:21;99557.09;;;-3.28;72.62
61906;BME280;47863;55.766;37.672;2023-03-14T00:50:46;99546.09;;;-3.35;73.10
61906;BME280;47863;55.766;37.672;2023-03-14T00:53:12;99561.16;;;-3.23;72.93
61906;BME280;47863;55.766;37.672;2023-03-14T00:55:39;99554.00;;;-3.19;72.63
61906;BME280;47863;55.766;37.672;2023-03-14T00:58:05;99492.72;;;-3.50;73.11
61906;BME280;47863;55.766;37.672;2023-03-14T01:00:31;99529.94;;;-3.10;72.72
61906;BME280;47863;55.766;37.672;2023-03-14T01:02:57;99518.69;;;-3.12;72.74
61906;BME280;47863;55.766;37.672;2023-03-14T01:05:23;99526.25;;;-3.06;73.23
61906;BME280;47863;55.766;37.672;2023-03-14T01:07:48;99528.84;;;-3.06;73.23
61906;BME280;47863;55.766;37.672;2023-03-14T01:10:14;99541.19;;;-3.08;73.60
61906;BME280;47863;55.766;37.672;2023-03-14T01:12:40;99528.00;;;-3.06;74.14
61906;BME280;47863;55.766;37.672;2023-03-14T01:15:06;99492.38;;;-3.26;74.31
61906;BME280;47863;55.766;37.672;2023-03-14T01:17:33;99529.63;;;-3.04;74.46
61906;BME280;47863;55.766;37.672;2023-03-14T01:19:59;99532.31;;;-3.05;74.59
61906;BME280;47863;55.766;37.672;2023-03-14T01:22:25;99526.06;;;-3.03;75.08
61906;BME280;47863;55.766;37.672;2023-03-14T01:24:51;99489.84;;;-3.28;75.13
61906;BME280;47863;55.766;37.672;2023-03-14T01:27:17;99483.59;;;-3.25;75.94
61906;BME280;47863;55.766;37.672;2023-03-14T01:29:42;99505.34;;;-3.07;75.93
61906;BME280;47863;55.766;37.672;2023-03-14T01:32:07;99442.25;;;-3.36;76.56
61906;BME280;47863;55.766;37.672;2023-03-14T01:34:33;99445.97;;;-3.24;77.77
61906;BME280;47863;55.766;37.672;2023-03-14T01:36:59;99427.81;;;-3.43;78.71
61906;BME280;47863;55.766;37.672;2023-03-14T01:39:24;99423.16;;;-3.38;79.40
61906;BME280;47863;55.766;37.672;2023-03-14T01:41:50;99462.22;;;-3.17;80.01
61906;BME280;47863;55.766;37.672;2023-03-14T01:44:15;99386.03;;;-3.62;81.02
61906;BME280;47863;55.766;37.672;2023-03-14T01:46:42;99459.69;;;-3.19;81.40
61906;BME280;47863;55.766;37.672;2023-03-14T01:49:16;99449.97;;;-3.17;82.44
61906;BME280;47863;55.766;37.672;2023-03-14T01:51:56;99454.19;;;-3.14;82.53
61906;BME280;47863;55.766;37.672;2023-03-14T01:54:38;99437.16;;;-3.06;83.95
61906;BME280;47863;55.766;37.672;2023-03-14T01:59:54;99444.06;;;-3.05;85.62
61906;BME280;47863;55.766;37.672;2023-03-14T02:02:22;99398.00;;;-3.25;86.15
61906;BME280;47863;55.766;37.672;2023-03-14T02:04:49;99424.63;;;-3.01;87.00
61906;BME280;47863;55.766;37.672;2023-03-14T02:07:32;99423.84;;;-3.03;87.23
61906;BME280;47863;55.766;37.672;2023-03-14T02:09:59;99391.25;;;-3.13;88.40
61906;BME280;47863;55.766;37.672;2023-03-14T02:12:25;99415.41;;;-2.92;88.14
61906;BME280;47863;55.766;37.672;2023-03-14T02:14:51;99408.41;;;-2.91;88.35
61906;BME280;47863;55.766;37.672;2023-03-14T02:17:18;99369.94;;;-3.07;88.62
61906;BME280;47863;55.766;37.672;2023-03-14T02:22:51;99379.53;;;-2.75;89.91
61906;BME280;47863;55.766;37.672;2023-03-14T02:27:51;99369.13;;;-2.77;90.10
61906;BME280;47863;55.766;37.672;2023-03-14T02:30:31;99358.97;;;-2.67;90.55
61906;BME280;47863;55.766;37.672;2023-03-14T02:33:05;99339.88;;;-2.69;90.68
61906;BME280;47863;55.766;37.672;2023-03-14T02:38:31;99347.69;;;-2.53;91.17
61906;BME280;47863;55.766;37.672;2023-03-14T02:40:59;99325.88;;;-2.54;91.43
61906;BME280;47863;55.766;37.672;2023-03-14T02:43:24;99329.16;;;-2.50;91.92
61906;BME280;47863;55.766;37.672;2023-03-14T02:45:51;99334.97;;;-2.45;92.64
61906;BME280;47863;55.766;37.672;2023-03-14T02:48:24;99327.97;;;-2.45;92.86
61906;BME280;47863;55.766;37.672;2023-03-14T02:50:53;99308.56;;;-2.56;93.86
61906;BME280;47863;55.766;37.672;2023-03-14T02:53:23;99296.94;;;-2.52;95.05
61906;BME280;47863;55.766;37.672;2023-03-14T02:55:50;99308.56;;;-2.42;95.60
61906;BME280;47863;55.766;37.672;2023-03-14T02:58:16;99303.88;;;-2.37;96.12
61906;BME280;47863;55.766;37.672;2023-03-14T03:00:42;99303.88;;;-2.37;96.37
61906;BME280;47863;55.766;37.672;2023-03-14T03:03:08;99311.00;;;-2.39;96.42
61906;BME280;47863;55.766;37.672;2023-03-14T03:05:33;99327.31;;;-2.34;96.84
61906;BME280;47863;55.766;37.672;2023-03-14T03:07:59;99307.09;;;-2.32;97.23
61906;BME280;47863;55.766;37.672;2023-03-14T03:10:26;99290.13;;;-2.41;97.38
61906;BME280;47863;55.766;37.672;2023-03-14T03:12:51;99345.16;;;-2.25;97.35
61906;BME280;47863;55.766;37.672;2023-03-14T03:15:17;99297.34;;;-2.44;97.50
61906;BME280;47863;55.766;37.672;2023-03-14T03:17:43;99309.44;;;-2.27;97.38
61906;BME280;47863;55.766;37.672;2023-03-14T03:20:09;99312.72;;;-2.24;97.37
61906;BME280;47863;55.766;37.672;2023-03-14T03:22:36;99306.25;;;-2.18;97.72
61906;BME280;47863;55.766;37.672;2023-03-14T03:25:03;99303.47;;;-2.15;97.46
61906;BME280;47863;55.766;37.672;2023-03-14T03:27:33;99289.97;;;-2.09;97.35
61906;BME280;47863;55.766;37.672;2023-03-14T03:29:59;99255.19;;;-2.27;96.93
61906;BME280;47863;55.766;37.672;2023-03-14T03:32:25;99282.84;;;-2.07;97.25
61906;BME280;47863;55.766;37.672;2023-03-14T03:34:51;99245.91;;;-2.18;96.87
61906;BME280;47863;55.766;37.672;2023-03-14T03:37:17;99255.03;;;-2.09;96.76
61906;BME280;47863;55.766;37.672;2023-03-14T03:39:43;99256.13;;;-1.99;96.58
61906;BME280;47863;55.766;37.672;2023-03-14T03:42:08;99238.78;;;-2.02;96.20
61906;BME280;47863;55.766;37.672;2023-03-14T03:44:34;99236.72;;;-1.96;96.38
61906;BME280;47863;55.766;37.672;2023-03-14T03:46:59;99218.44;;;-1.98;96.28
61906;BME280;47863;55.766;37.672;2023-03-14T03:49:29;99216.09;;;-2.03;96.32
61906;BME280;47863;55.766;37.672;2023-03-14T03:51:55;99234.72;;;-1.78;96.49
61906;BME280;47863;55.766;37.672;2023-03-14T03:54:20;99186.97;;;-2.12;96.04
61906;BME280;47863;55.766;37.672;2023-03-14T03:56:46;99233.50;;;-1.73;96.41
61906;BME280;47863;55.766;37.672;2023-03-14T03:59:11;99213.31;;;-1.72;96.07
61906;BME280;47863;55.766;37.672;2023-03-14T04:01:37;99213.53;;;-1.75;96.36
61906;BME280;47863;55.766;37.672;2023-03-14T04:04:02;99218.41;;;-1.69;96.43
61906;BME280;47863;55.766;37.672;2023-03-14T04:06:28;99216.50;;;-1.67;96.48
61906;BME280;47863;55.766;37.672;2023-03-14T04:08:54;99228.66;;;-1.52;96.67
61906;BME280;47863;55.766;37.672;2023-03-14T04:11:19;99217.13;;;-1.49;96.70
61906;BME280;47863;55.766;37.672;2023-03-14T04:13:45;99221.88;;;-1.42;96.76
61906;BME280;47863;55.766;37.672;2023-03-14T04:16:17;99217.38;;;-1.40;97.13
61906;BME280;47863;55.766;37.672;2023-03-14T04:18:43;99209.28;;;-1.36;97.45
61906;BME280;47863;55.766;37.672;2023-03-14T04:21:08;99214.25;;;-1.32;97.35
61906;BME280;47863;55.766;37.672;2023-03-14T04:23:34;99197.34;;;-1.28;97.41
61906;BME280;47863;55.766;37.672;2023-03-14T04:25:59;99194.81;;;-1.29;97.33
61906;BME280;47863;55.766;37.672;2023-03-14T04:28:25;99192.31;;;-1.18;97.56
61906;BME280;47863;55.766;37.672;2023-03-14T04:30:50;99188.53;;;-1.14;97.37
61906;BME280;47863;55.766;37.672;2023-03-14T04:33:16;99170.66;;;-1.22;97.49
61906;BME280;47863;55.766;37.672;2023-03-14T04:35:45;99181.41;;;-1.12;97.52
61906;BME280;47863;55.766;37.672;2023-03-14T04:38:11;99182.78;;;-1.06;97.23
61906;BME280;47863;55.766;37.672;2023-03-14T04:40:38;99195.94;;;-0.93;97.41
61906;BME280;47863;55.766;37.672;2023-03-14T04:43:04;99169.63;;;-0.93;97.63
61906;BME280;47863;55.766;37.672;2023-03-14T04:45:29;99168.19;;;-0.85;97.81
61906;BME280;47863;55.766;37.672;2023-03-14T04:47:55;99145.97;;;-0.93;97.48
61906;BME280;47863;55.766;37.672;2023-03-14T04:50:20;99152.84;;;-0.91;97.29
61906;BME280;47863;55.766;37.672;2023-03-14T04:52:46;99158.09;;;-0.78;97.48
61906;BME280;47863;55.766;37.672;2023-03-14T04:55:12;99156.28;;;-0.77;97.72
61906;BME280;47863;55.766;37.672;2023-03-14T04:57:38;99153.88;;;-0.68;97.75
61906;BME280;47863;55.766;37.672;2023-03-14T05:00:04;99146.81;;;-0.67;97.63
61906;BME280;47863;55.766;37.672;2023-03-14T05:02:33;99150.81;;;-0.62;97.74
61906;BME280;47863;55.766;37.672;2023-03-14T05:04:59;99136.72;;;-0.61;97.62
61906;BME280;47863;55.766;37.672;2023-03-14T05:07:25;99100.63;;;-0.71;97.54
61906;BME280;47863;55.766;37.672;2023-03-14T05:09:50;99137.13;;;-0.54;97.42
61906;BME280;47863;55.766;37.672;2023-03-14T05:12:17;99116.63;;;-0.49;97.69
61906;BME280;47863;55.766;37.672;2023-03-14T05:14:43;99071.09;;;-0.75;97.65
61906;BME280;47863;55.766;37.672;2023-03-14T05:17:09;99072.03;;;-0.63;97.60
61906;BME280;47863;55.766;37.672;2023-03-14T05:19:35;99089.97;;;-0.44;97.87
61906;BME280;47863;55.766;37.672;2023-03-14T05:22:00;99109.56;;;-0.35;97.81
61906;BME280;47863;55.766;37.672;2023-03-14T05:24:26;99092.72;;;-0.46;97.73
61906;BME280;47863;55.766;37.672;2023-03-14T05:26:52;99121.94;;;-0.25;97.97
61906;BME280;47863;55.766;37.672;2023-03-14T05:29:18;99113.69;;;-0.20;97.83
61906;BME280;47863;55.766;37.672;2023-03-14T05:31:43;99099.25;;;-0.14;98.30
61906;BME280;47863;55.766;37.672;2023-03-14T05:34:09;99114.13;;;-0.13;97.81
61906;BME280;47863;55.766;37.672;2023-03-14T05:36:34;99126.31;;;-0.12;97.83
61906;BME280;47863;55.766;37.672;2023-03-14T05:39:00;99113.69;;;-0.20;97.91
61906;BME280;47863;55.766;37.672;2023-03-14T05:41:26;99130.31;;;-0.07;97.90
61906;BME280;47863;55.766;37.672;2023-03-14T05:43:51;99107.41;;;-0.17;97.98
61906;BME280;47863;55.766;37.672;2023-03-14T05:46:17;99133.38;;;0.00;97.97
61906;BME280;47863;55.766;37.672;2023-03-14T05:48:42;99020.66;;;-0.56;98.03
61906;BME280;47863;55.766;37.672;2023-03-14T05:51:08;99088.81;;;-0.03;97.88
61906;BME280;47863;55.766;37.672;2023-03-14T05:53:34;99119.06;;;0.15;98.07
61906;BME280;47863;55.766;37.672;2023-03-14T05:55:59;99114.31;;;0.21;98.11
61906;BME280;47863;55.766;37.672;2023-03-14T05:58:25;99085.63;;;0.05;98.04
61906;BME280;47863;55.766;37.672;2023-03-14T06:00:50;99124.69;;;0.35;97.59
61906;BME280;47863;55.766;37.672;2023-03-14T06:03:16;99140.28;;;0.38;97.37
61906;BME280;47863;55.766;37.672;2023-03-14T06:05:41;99143.53;;;0.42;97.27
61906;BME280;47863;55.766;37.672;2023-03-14T06:08:07;99160.06;;;0.44;97.37
61906;BME280;47863;55.766;37.672;2023-03-14T06:10:34;99118.94;;;0.30;97.38
61906;BME280;47863;55.766;37.672;2023-03-14T06:13:00;99130.16;;;0.56;97.01
61906;BME280;47863;55.766;37.672;2023-03-14T06:15:26;99109.75;;;0.47;96.80
61906;BME280;47863;55.766;37.672;2023-03-14T06:17:54;99125.28;;;0.63;96.36
61906;BME280;47863;55.766;37.672;2023-03-14T06:20:20;99127.44;;;0.69;96.52
61906;BME280;47863;55.766;37.672;2023-03-14T06:22:45;99129.63;;;0.75;96.37
61906;BME280;47863;55.766;37.672;2023-03-14T06:25:11;99103.53;;;0.83;95.51
61906;BME280;47863;55.766;37.672;2023-03-14T06:27:38;99079.66;;;0.73;95.10
61906;BME280;47863;55.766;37.672;2023-03-14T06:30:04;99085.81;;;0.85;94.69
61906;BME280;47863;55.766;37.672;2023-03-14T06:32:30;99100.44;;;1.01;93.96
61906;BME280;47863;55.766;37.672;2023-03-14T06:34:55;99108.13;;;1.04;93.77
61906;BME280;47863;55.766;37.672;2023-03-14T06:37:22;99115.94;;;1.05;93.23
61906;BME280;47863;55.766;37.672;2023-03-14T06:39:48;99119.66;;;1.14;93.61
61906;BME280;47863;55.766;37.672;2023-03-14T06:42:13;99119.31;;;1.18;93.14
61906;BME280;47863;55.766;37.672;2023-03-14T06:44:39;99104.06;;;1.22;92.79
61906;BME280;47863;55.766;37.672;2023-03-14T06:47:04;99099.19;;;1.29;92.31
61906;BME280;47863;55.766;37.672;2023-03-14T06:49:30;99071.22;;;1.15;92.38
61906;BME280;47863;55.766;37.672;2023-03-14T06:51:55;99087.06;;;1.37;91.77
61906;BME280;47863;55.766;37.672;2023-03-14T06:54:21;99086.22;;;1.37;92.33
61906;BME280;47863;55.766;37.672;2023-03-14T06:56:47;99090.19;;;1.43;92.60
61906;BME280;47863;55.766;37.672;2023-03-14T06:59:12;99116.94;;;1.61;92.09
61906;BME280;47863;55.766;37.672;2023-03-14T07:01:38;99101.31;;;1.69;90.47
61906;BME280;47863;55.766;37.672;2023-03-14T07:04:03;99087.03;;;1.71;90.14
61906;BME280;47863;55.766;37.672;2023-03-14T07:06:29;99100.34;;;1.70;89.44
61906;BME280;47863;55.766;37.672;2023-03-14T07:08:55;99101.31;;;1.80;89.43
61906;BME280;47863;55.766;37.672;2023-03-14T07:11:22;99098.78;;;1.90;89.05
61906;BME280;47863;55.766;37.672;2023-03-14T07:13:47;99101.03;;;1.94;87.74
61906;BME280;47863;55.766;37.672;2023-03-14T07:16:13;99095.75;;;1.94;88.37
61906;BME280;47863;55.766;37.672;2023-03-14T07:18:39;99046.72;;;1.69;88.29
61906;BME280;47863;55.766;37.672;2023-03-14T07:21:08;99108.81;;;2.07;88.22
61906;BME280;47863;55.766;37.672;2023-03-14T07:23:34;99108.78;;;2.18;88.07
61906;BME280;47863;55.766;37.672;2023-03-14T07:26:00;99117.53;;;2.30;87.58
61906;BME280;47863;55.766;37.672;2023-03-14T07:28:26;99117.88;;;2.37;87.25
61906;BME280;47863;55.766;37.672;2023-03-14T07:30:53;99116.28;;;2.46;86.86
61906;BME280;47863;55.766;37.672;2023-03-14T07:33:18;99114.94;;;2.51;85.85
61906;BME280;47863;55.766;37.672;2023-03-14T07:35:44;99110.47;;;2.52;85.52
61906;BME280;47863;55.766;37.672;2023-03-14T07:38:09;99134.25;;;2.63;85.26
61906;BME280;47863;55.766;37.672;2023-03-14T07:40:35;99099.28;;;2.60;84.68
61906;BME280;47863;55.766;37.672;2023-03-14T07:43:00;99134.31;;;2.73;84.61
61906;BME280;47863;55.766;37.672;2023-03-14T07:45:26;99090.59;;;2.69;83.92
61906;BME280;47863;55.766;37.672;2023-03-14T07:47:51;99089.78;;;2.78;83.62
61906;BME280;47863;55.766;37.672;2023-03-14T07:50:17;99080.97;;;2.68;83.76
61906;BME280;47863;55.766;37.672;2023-03-14T07:52:42;99104.44;;;2.82;83.04
61906;BME280;47863;55.766;37.672;2023-03-14T07:55:08;99107.31;;;2.90;82.31
61906;BME280;47863;55.766;37.672;2023-03-14T07:57:34;99099.09;;;2.93;81.18
61906;BME280;47863;55.766;37.672;2023-03-14T07:59:59;99088.91;;;2.89;80.26
61906;BME280;47863;55.766;37.672;2023-03-14T08:02:25;99103.75;;;3.01;80.34
61906;BME280;47863;55.766;37.672;2023-03-14T08:04:50;99084.38;;;3.01;77.86
61906;BME280;47863;55.766;37.672;2023-03-14T08:07:16;99113.97;;;3.15;77.26
61906;BME280;47863;55.766;37.672;2023-03-14T08:09:42;99102.81;;;3.12;78.13
61906;BME280;47863;55.766;37.672;2023-03-14T08:12:07;99122.91;;;3.14;78.02
61906;BME280;47863;55.766;37.672;2023-03-14T08:14:33;99130.97;;;3.13;78.40
61906;BME280;47863;55.766;37.672;2023-03-14T08:16:59;99118.50;;;3.04;78.74
61906;BME280;47863;55.766;37.672;2023-03-14T08:19:24;99130.06;;;3.03;79.08
61906;BME280;47863;55.766;37.672;2023-03-14T08:21:50;99134.03;;;3.08;78.66
61906;BME280;47863;55.766;37.672;2023-03-14T08:24:16;99120.06;;;3.06;78.77
61906;BME280;47863;55.766;37.672;2023-03-14T08:26:41;99101.03;;;2.91;79.23
61906;BME280;47863;55.766;37.672;2023-03-14T08:29:07;99126.97;;;2.97;79.33
61906;BME280;47863;55.766;37.672;2023-03-14T08:31:34;99152.19;;;3.02;79.35
61906;BME280;47863;55.766;37.672;2023-03-14T08:34:01;99131.44;;;2.97;79.69
61906;BME280;47863;55.766;37.672;2023-03-14T08:36:27;99127.75;;;3.09;79.64
61906;BME280;47863;55.766;37.672;2023-03-14T08:38:53;99132.25;;;2.97;80.36
61906;BME280;47863;55.766;37.672;2023-03-14T08:41:19;99134.53;;;3.02;80.49
61906;BME280;47863;55.766;37.672;2023-03-14T08:43:44;99125.84;;;3.00;79.83
61906;BME280;47863;55.766;37.672;2023-03-14T08:46:10;99125.31;;;2.96;80.72
61906;BME280;47863;55.766;37.672;2023-03-14T08:48:35;99118.06;;;2.98;80.95
61906;BME280;47863;55.766;37.672;2023-03-14T08:51:09;99130.38;;;3.09;80.38
61906;BME280;47863;55.766;37.672;2023-03-14T08:53:36;99108.78;;;3.04;80.16
61906;BME280;47863;55.766;37.672;2023-03-14T08:56:02;99132.06;;;3.10;80.27
61906;BME280;47863;55.766;37.672;2023-03-14T08:58:28;99128.72;;;3.08;80.36
61906;BME280;47863;55.766;37.672;2023-03-14T09:00:54;99070.91;;;2.83;80.57
61906;BME280;47863;55.766;37.672;2023-03-14T09:03:20;99117.22;;;3.19;79.12
61906;BME280;47863;55.766;37.672;2023-03-14T09:05:49;99114.16;;;3.24;78.75
61906;BME280;47863;55.766;37.672;2023-03-14T09:08:15;99111.38;;;3.46;77.95
61906;BME280;47863;55.766;37.672;2023-03-14T09:10:40;99057.66;;;3.34;78.09
61906;BME280;47863;55.766;37.672;2023-03-14T09:13:06;99075.88;;;3.58;76.62
61906;BME280;47863;55.766;37.672;2023-03-14T09:15:32;99099.25;;;3.84;75.77
61906;BME280;47863;55.766;37.672;2023-03-14T09:17:57;99086.16;;;3.92;75.53
61906;BME280;47863;55.766;37.672;2023-03-14T09:20:23;99093.28;;;4.02;73.84
61906;BME280;47863;55.766;37.672;2023-03-14T09:22:48;99109.22;;;4.11;74.29
61906;BME280;47863;55.766;37.672;2023-03-14T09:25:14;99112.97;;;4.18;72.76
61906;BME280;47863;55.766;37.672;2023-03-14T09:27:40;99107.41;;;4.22;72.81
61906;BME280;47863;55.766;37.672;2023-03-14T09:30:05;99083.00;;;4.18;72.23
61906;BME280;47863;55.766;37.672;2023-03-14T09:32:31;99111.06;;;4.40;70.81
61906;BME280;47863;55.766;37.672;2023-03-14T09:34:57;99035.13;;;4.00;71.78
61906;BME280;47863;55.766;37.672;2023-03-14T09:37:23;99086.47;;;4.28;71.98
61906;BME280;47863;55.766;37.672;2023-03-14T09:39:48;99111.06;;;4.40;71.83
61906;BME280;47863;55.766;37.672;2023-03-14T09:42:17;99116.22;;;4.51;70.06
61906;BME280;47863;55.766;37.672;2023-03-14T09:47:18;99117.63;;;4.55;69.97
61906;BME280;47863;55.766;37.672;2023-03-14T09:49:45;99116.66;;;4.56;70.46
61906;BME280;47863;55.766;37.672;2023-03-14T09:54:43;99109.09;;;4.62;69.72
61906;BME280;47863;55.766;37.672;2023-03-14T09:57:28;99105.50;;;4.53;69.87
61906;BME280;47863;55.766;37.672;2023-03-14T10:00:02;99114.84;;;4.67;69.49
61906;BME280;47863;55.766;37.672;2023-03-14T10:02:38;99092.22;;;4.53;69.57
61906;BME280;47863;55.766;37.672;2023-03-14T10:05:16;99107.72;;;4.67;69.75
61906;BME280;47863;55.766;37.672;2023-03-14T10:07:42;99101.16;;;4.62;69.27
61906;BME280;47863;55.766;37.672;2023-03-14T10:10:11;99073.78;;;4.71;67.21
61906;BME280;47863;55.766;37.672;2023-03-14T10:12:38;99116.94;;;4.83;68.12
61906;BME280;47863;55.766;37.672;2023-03-14T10:15:06;99101.44;;;4.78;68.59
61906;BME280;47863;55.766;37.672;2023-03-14T10:17:46;99094.59;;;4.56;71.66
61906;BME280;47863;55.766;37.672;2023-03-14T10:20:37;99086.19;;;4.22;74.57
61906;BME280;47863;55.766;37.672;2023-03-14T10:23:21;99056.56;;;3.77;78.23
61906;BME280;47863;55.766;37.672;2023-03-14T10:26:18;99095.03;;;3.72;79.03
61906;BME280;47863;55.766;37.672;2023-03-14T10:28:52;99089.81;;;3.61;80.52
61906;BME280;47863;55.766;37.672;2023-03-14T10:31:24;99054.44;;;3.31;80.50
61906;BME280;47863;55.766;37.672;2023-03-14T10:34:03;99027.19;;;3.09;81.07
61906;BME280;47863;55.766;37.672;2023-03-14T10:36:30;99097.44;;;3.44;80.69
61906;BME280;47863;55.766;37.672;2023-03-14T10:44:51;99103.84;;;3.51;81.87
61906;BME280;47863;55.766;37.672;2023-03-14T10:47:22;99081.16;;;3.58;81.31
61906;BME280;47863;55.766;37.672;2023-03-14T10:49:49;99063.91;;;3.64;81.18
61906;BME280;47863;55.766;37.672;2023-03-14T10:52:28;99074.16;;;3.88;80.06
61906;BME280;47863;55.766;37.672;2023-03-14T10:55:00;99065.81;;;4.03;79.89
61906;BME280;47863;55.766;37.672;2023-03-14T10:57:26;99070.84;;;4.15;79.61
61906;BME280;47863;55.766;37.672;2023-03-14T10:59:53;99061.38;;;4.23;77.68
61906;BME280;47863;55.766;37.672;2023-03-14T11:07:27;99038.50;;;4.51;73.46
61906;BME280;47863;55.766;37.672;2023-03-14T11:15:33;99049.94;;;5.18;73.48
61906;BME280;47863;55.766;37.672;2023-03-14T11:23:28;99066.94;;;5.63;69.40
61906;BME280;47863;55.766;37.672;2023-03-14T11:26:28;99086.50;;;5.71;67.92
61906;BME280;47863;55.766;37.672;2023-03-14T11:29:14;99069.19;;;5.67;66.71
61906;BME280;47863;55.766;37.672;2023-03-14T11:31:44;99083.69;;;5.73;66.85
61906;BME280;47863;55.766;37.672;2023-03-14T11:34:12;99085.50;;;5.72;66.89
61906;BME280;47863;55.766;37.672;2023-03-14T11:36:51;99079.22;;;5.73;66.89
61906;BME280;47863;55.766;37.672;2023-03-14T11:39:18;99075.69;;;5.83;64.66
61906;BME280;47863;55.766;37.672;2023-03-14T11:41:52;99081.97;;;5.82;64.99
61906;BME280;47863;55.766;37.672;2023-03-14T11:44:32;99077.34;;;5.84;65.43
61906;BME280;47863;55.766;37.672;2023-03-14T11:47:03;99096.50;;;5.87;65.11
61906;BME280;47863;55.766;37.672;2023-03-14T11:49:49;99075.34;;;5.95;63.64
61906;BME280;47863;55.766;37.672;2023-03-14T11:54:58;99078.13;;;5.94;64.16
61906;BME280;47863;55.766;37.672;2023-03-14T11:57:28;99072.97;;;5.92;64.83
61906;BME280;47863;55.766;37.672;2023-03-14T12:02:50;99086.53;;;5.99;64.52
61906;BME280;47863;55.766;37.672;2023-03-14T12:08:19;99093.06;;;6.05;63.24
61906;BME280;47863;55.766;37.672;2023-03-14T12:10:53;99078.97;;;5.94;63.53
61906;BME280;47863;55.766;37.672;2023-03-14T12:13:20;99079.13;;;5.93;63.66
61906;BME280;47863;55.766;37.672;2023-03-14T12:15:57;99090.56;;;6.03;63.86
61906;BME280;47863;55.766;37.672;2023-03-14T12:18:29;99096.00;;;6.02;65.03
61906;BME280;47863;55.766;37.672;2023-03-14T12:20:58;99064.75;;;5.86;64.90
61906;BME280;47863;55.766;37.672;2023-03-14T12:23:26;99097.69;;;6.03;63.47
61906;BME280;47863;55.766;37.672;2023-03-14T12:26:07;99088.13;;;6.10;62.60
61906;BME280;47863;55.766;37.672;2023-03-14T12:28:33;99086.84;;;6.14;61.34
61906;BME280;47863;55.766;37.672;2023-03-14T12:39:21;99111.38;;;6.08;61.34
61906;BME280;47863;55.766;37.672;2023-03-14T12:42:02;99100.72;;;6.08;60.98
61906;BME280;47863;55.766;37.672;2023-03-14T12:47:46;99095.13;;;5.83;61.18
61906;BME280;47863;55.766;37.672;2023-03-14T12:49:53;99094.97;;;5.85;62.41
61906;BME280;47863;55.766;37.672;2023-03-14T12:55:24;99083.16;;;5.32;66.68
61906;BME280;47863;55.766;37.672;2023-03-14T12:58:54;99102.59;;;5.23;68.23
61906;BME280;47863;55.766;37.672;2023-03-14T13:00:58;99094.16;;;5.00;69.64
61906;BME280;47863;55.766;37.672;2023-03-14T13:03:26;99100.56;;;4.97;71.24
61906;BME280;47863;55.766;37.672;2023-03-14T13:06:02;99078.41;;;4.69;72.18
61906;BME280;47863;55.766;37.672;2023-03-14T13:11:06;99101.84;;;4.64;72.45
61906;BME280;47863;55.766;37.672;2023-03-14T13:13:35;99064.31;;;4.39;72.82
61906;BME280;47863;55.766;37.672;2023-03-14T13:16:02;99098.94;;;4.47;72.92
61906;BME280;47863;55.766;37.672;2023-03-14T13:18:42;99112.88;;;4.49;72.40
61906;BME280;47863;55.766;37.672;2023-03-14T13:21:18;99097.22;;;4.46;72.64
61906;BME280;47863;55.766;37.672;2023-03-14T13:24:07;99092.66;;;4.48;72.14
61906;BME280;47863;55.766;37.672;2023-03-14T13:26:44;99090.41;;;4.53;71.42
61906;BME280;47863;55.766;37.672;2023-03-14T13:29:17;99108.72;;;4.56;71.20
61906;BME280;47863;55.766;37.672;2023-03-14T13:31:51;99088.31;;;4.76;70.49
61906;BME280;47863;55.766;37.672;2023-03-14T13:34:17;99074.72;;;4.89;69.21
61906;BME280;47863;55.766;37.672;2023-03-14T13:36:44;99086.19;;;5.00;68.03
61906;BME280;47863;55.766;37.672;2023-03-14T13:39:13;99088.28;;;5.06;67.36
61906;BME280;47863;55.766;37.672;2023-03-14T13:41:39;99090.47;;;5.20;67.21
61906;BME280;47863;55.766;37.672;2023-03-14T13:44:07;99069.81;;;5.14;66.62
61906;BME280;47863;55.766;37.672;2023-03-14T13:46:35;99099.78;;;5.34;66.03
61906;BME280;47863;55.766;37.672;2023-03-14T13:49:03;99081.75;;;5.38;64.96
61906;BME280;47863;55.766;37.672;2023-03-14T13:51:30;99087.16;;;5.46;64.57
61906;BME280;47863;55.766;37.672;2023-03-14T13:54:00;99086.88;;;5.49;63.72
61906;BME280;47863;55.766;37.672;2023-03-14T13:56:28;99086.72;;;5.50;63.90
61906;BME280;47863;55.766;37.672;2023-03-14T13:58:54;99085.63;;;5.53;63.54
61906;BME280;47863;55.766;37.672;2023-03-14T14:01:29;99092.59;;;5.54;63.74
61906;BME280;47863;55.766;37.672;2023-03-14T14:04:06;99085.75;;;5.51;62.19